createdAt,value
2022-12-03T00:01:22.211Z,101208.78
2022-12-03T00:04:25.028Z,101201.69
2022-12-03T00:07:27.338Z,101209.59
2022-12-03T00:10:30.182Z,101208.25
2022-12-03T00:13:32.434Z,101189.69
2022-12-03T00:16:35.026Z,101221.84
2022-12-03T00:19:37.237Z,101224.06
2022-12-03T00:22:39.713Z,101198.94
2022-12-03T00:25:41.918Z,101226.25
2022-12-03T00:28:45.671Z,101228.97
2022-12-03T00:31:48.829Z,101222.41
2022-12-03T00:34:51.696Z,101198.12
2022-12-03T00:37:54.898Z,101234.38
2022-12-03T00:40:57.384Z,101203.84
2022-12-03T00:43:59.676Z,101227.63
2022-12-03T00:47:02.323Z,101229.50
2022-12-03T00:50:05.614Z,101232.78
2022-12-03T00:53:08.146Z,101234.41
2022-12-03T00:56:10.361Z,101230.59
2022-12-03T00:59:12.973Z,101210.66
2022-12-03T01:02:16.039Z,101233.59
2022-12-03T01:05:19.850Z,101231.69
2022-12-03T01:08:22.190Z,101205.47
2022-12-03T01:11:41.245Z,101231.41
2022-12-03T01:14:44.112Z,101235.50
2022-12-03T01:17:46.900Z,101225.94
2022-12-03T01:20:49.218Z,101195.66
2022-12-03T01:23:51.858Z,101201.12
2022-12-03T01:26:55.873Z,101192.94
2022-12-03T01:29:58.354Z,101227.59
2022-12-03T01:33:00.537Z,101235.19
2022-12-03T01:36:03.184Z,101236.87
2022-12-03T01:39:05.473Z,101228.97
2022-12-03T01:42:11.951Z,101236.03
2022-12-03T01:45:22.963Z,101228.41
2022-12-03T01:48:25.457Z,101235.78
2022-12-03T01:51:27.697Z,101217.47
2022-12-03T01:54:38.854Z,101237.69
2022-12-03T01:57:45.416Z,101216.94
2022-12-03T02:00:48.220Z,101236.84
2022-12-03T02:03:50.944Z,101222.41
2022-12-03T02:06:53.574Z,101244.78
2022-12-03T02:09:58.137Z,101249.66
2022-12-03T02:13:07.563Z,101233.87
2022-12-03T02:16:10.139Z,101236.03
2022-12-03T02:19:26.791Z,101204.97
2022-12-03T02:22:40.651Z,101225.72
2022-12-03T02:25:43.138Z,101232.25
2022-12-03T02:28:45.365Z,101231.69
2022-12-03T02:31:47.942Z,101229.50
2022-12-03T02:34:52.240Z,101207.09
2022-12-03T02:38:00.213Z,101205.75
2022-12-03T02:41:07.293Z,101209.84
2022-12-03T02:44:10.047Z,101230.59
2022-12-03T02:47:12.999Z,101227.34
2022-12-03T02:50:20.020Z,101205.47
2022-12-03T02:53:32.491Z,101206.03
2022-12-03T02:56:35.181Z,101208.22
2022-12-03T02:59:37.466Z,101231.41
2022-12-03T03:02:41.374Z,101233.31
2022-12-03T03:05:45.151Z,101216.09
2022-12-03T03:08:48.135Z,101238.22
2022-12-03T03:11:50.281Z,101228.94
2022-12-03T03:14:53.003Z,101228.16
2022-12-03T03:17:55.860Z,101225.72
2022-12-03T03:20:59.136Z,101227.03
2022-12-03T03:24:01.425Z,101207.66
2022-12-03T03:27:05.115Z,101230.03
2022-12-03T03:30:09.646Z,101217.44
2022-12-03T03:33:14.418Z,101239.81
2022-12-03T03:36:17.233Z,101240.66
2022-12-03T03:39:19.874Z,101237.16
2022-12-03T03:42:22.794Z,101200.84
2022-12-03T03:45:29.080Z,101223.53
2022-12-03T03:48:34.516Z,101232.25
2022-12-03T03:51:38.681Z,101228.44
2022-12-03T03:54:41.017Z,101228.16
2022-12-03T03:57:43.595Z,101205.22
2022-12-03T04:00:46.574Z,101209.59
2022-12-03T04:03:49.209Z,101195.38
2022-12-03T04:06:51.453Z,101224.88
2022-12-03T04:09:53.974Z,101215.88
2022-12-03T04:12:56.434Z,101207.41
2022-12-03T04:15:59.095Z,101212.03
2022-12-03T04:19:01.317Z,101235.78
2022-12-03T04:22:22.110Z,101219.38
2022-12-03T04:25:43.042Z,101233.59
2022-12-03T04:28:51.128Z,101208.75
2022-12-03T04:32:11.686Z,101236.63
2022-12-03T04:35:33.281Z,101207.69
2022-12-03T04:38:35.673Z,101218.62
2022-12-03T04:41:38.154Z,101210.97
2022-12-03T04:44:40.745Z,101234.97
2022-12-03T04:47:44.706Z,101202.72
2022-12-03T04:50:47.012Z,101235.78
2022-12-03T04:53:49.522Z,101206.03
2022-12-03T04:56:51.820Z,101243.69
2022-12-03T04:59:54.289Z,101211.47
2022-12-03T05:02:56.560Z,101220.19
2022-12-03T05:05:59.478Z,101225.09
2022-12-03T05:09:01.775Z,101220.94
2022-12-03T05:12:04.582Z,101254.78
2022-12-03T05:15:07.328Z,101241.69
2022-12-03T05:18:09.843Z,101250.13
2022-12-03T05:21:12.273Z,101230.97
2022-12-03T05:24:14.810Z,101235.03
2022-12-03T05:27:23.140Z,101265.34
2022-12-03T05:30:26.458Z,101236.94
2022-12-03T05:33:28.766Z,101261.03
2022-12-03T05:36:34.310Z,101255.00
2022-12-03T05:39:36.937Z,101248.75
2022-12-03T05:42:55.204Z,101227.72
2022-12-03T05:45:57.477Z,101257.44
2022-12-03T05:49:00.054Z,101249.00
2022-12-03T05:52:02.618Z,101235.31
2022-12-03T05:55:05.664Z,101235.31
2022-12-03T05:58:08.262Z,101258.28
2022-12-03T06:01:10.872Z,101270.81
2022-12-03T06:04:13.428Z,101268.59
2022-12-03T06:07:15.763Z,101256.59
2022-12-03T06:10:28.331Z,101248.66
2022-12-03T06:13:30.559Z,101254.13
2022-12-03T06:16:33.160Z,101252.75
2022-12-03T06:19:35.944Z,101251.16
2022-12-03T06:22:38.446Z,101241.88
2022-12-03T06:25:40.802Z,101238.38
2022-12-03T06:28:47.708Z,101266.19
2022-12-03T06:31:50.048Z,101273.34
2022-12-03T06:34:52.915Z,101245.25
2022-12-03T06:37:55.541Z,101244.44
2022-12-03T06:40:58.182Z,101256.22
2022-12-03T06:44:03.598Z,101241.72
2022-12-03T06:47:06.330Z,101285.06
2022-12-03T06:50:10.554Z,101250.13
2022-12-03T06:53:13.081Z,101282.66
2022-12-03T06:56:18.844Z,101254.53
2022-12-03T06:59:24.025Z,101276.97
2022-12-03T07:02:26.365Z,101250.72
2022-12-03T07:05:28.959Z,101279.12
2022-12-03T07:08:31.177Z,101249.94
2022-12-03T07:11:39.889Z,101277.81
2022-12-03T07:14:42.168Z,101285.69
2022-12-03T07:17:44.737Z,101283.25
2022-12-03T07:20:47.071Z,101250.78
2022-12-03T07:23:49.605Z,101262.78
2022-12-03T07:26:51.987Z,101286.25
2022-12-03T07:29:54.574Z,101249.72
2022-12-03T07:32:57.068Z,101284.09
2022-12-03T07:35:59.613Z,101275.34
2022-12-03T07:39:01.856Z,101272.62
2022-12-03T07:42:04.496Z,101260.06
2022-12-03T07:45:07.427Z,101260.34
2022-12-03T07:48:10.395Z,101285.19
2022-12-03T07:51:15.270Z,101297.22
2022-12-03T07:54:18.190Z,101284.13
2022-12-03T07:57:20.880Z,101282.50
2022-12-03T08:00:23.566Z,101285.78
2022-12-03T08:03:26.132Z,101260.13
2022-12-03T08:06:28.422Z,101260.13
2022-12-03T08:09:31.511Z,101287.97
2022-12-03T08:12:40.877Z,101289.62
2022-12-03T08:15:44.054Z,101296.72
2022-12-03T08:18:48.378Z,101293.47
2022-12-03T08:21:52.320Z,101290.75
2022-12-03T08:24:58.717Z,101289.69
2022-12-03T08:28:28.255Z,101297.84
2022-12-03T08:31:33.653Z,101304.94
2022-12-03T08:34:42.524Z,101291.28
2022-12-03T08:37:44.881Z,101276.00
2022-12-03T08:40:51.018Z,101266.16
2022-12-03T08:43:53.238Z,101296.06
2022-12-03T08:47:21.747Z,101270.41
2022-12-03T08:50:30.151Z,101302.53
2022-12-03T08:53:47.669Z,101288.31
2022-12-03T08:56:50.036Z,101275.75
2022-12-03T09:00:10.050Z,101290.56
2022-12-03T09:03:19.349Z,101289.47
2022-12-03T09:06:22.902Z,101322.53
2022-12-03T09:09:25.583Z,101298.00
2022-12-03T09:12:28.070Z,101278.75
2022-12-03T09:15:30.307Z,101308.00
2022-12-03T09:18:33.688Z,101306.81
2022-12-03T09:21:36.129Z,101283.28
2022-12-03T09:24:38.651Z,101292.91
2022-12-03T09:27:40.915Z,101305.78
2022-12-03T09:30:46.383Z,101263.16
2022-12-03T09:33:48.860Z,101285.34
2022-12-03T09:36:51.443Z,101271.09
2022-12-03T09:39:53.691Z,101265.75
2022-12-03T09:42:58.643Z,101282.69
2022-12-03T09:46:01.448Z,101263.19
2022-12-03T09:49:12.320Z,101288.72
2022-12-03T09:52:27.563Z,101280.53
2022-12-03T09:55:31.166Z,101276.12
2022-12-03T09:58:35.030Z,101271.94
2022-12-03T10:01:38.416Z,101250.09
2022-12-03T10:04:44.247Z,101251.28
2022-12-03T10:07:48.344Z,101264.69
2022-12-03T10:10:57.100Z,101247.06
2022-12-03T10:13:59.496Z,101266.22
2022-12-03T10:17:02.264Z,101235.66
2022-12-03T10:20:05.147Z,101260.44
2022-12-03T10:23:07.683Z,101235.56
2022-12-03T10:26:10.122Z,101259.34
2022-12-03T10:29:29.630Z,101242.41
2022-12-03T10:32:47.512Z,101238.91
2022-12-03T10:35:50.034Z,101232.16
2022-12-03T10:39:12.530Z,101231.00
2022-12-03T10:42:16.335Z,101234.03
2022-12-03T10:45:22.691Z,101231.44
2022-12-03T10:48:27.385Z,101206.41
2022-12-03T10:51:30.924Z,101221.69
2022-12-03T10:54:35.519Z,101217.28
2022-12-03T10:57:42.380Z,101220.28
2022-12-03T11:00:48.479Z,101203.63
2022-12-03T11:03:51.846Z,101217.00
2022-12-03T11:06:55.346Z,101194.00
2022-12-03T11:09:58.897Z,101215.12
2022-12-03T11:13:20.169Z,101204.16
2022-12-03T11:16:45.446Z,101195.31
2022-12-03T11:19:48.849Z,101194.06
2022-12-03T11:22:55.618Z,101173.03
2022-12-03T11:25:58.318Z,101184.25
2022-12-03T11:29:00.643Z,101186.06
2022-12-03T11:32:03.283Z,101162.53
2022-12-03T11:35:13.034Z,101155.28
2022-12-03T11:38:37.547Z,101176.00
2022-12-03T11:42:29.002Z,101179.16
2022-12-03T11:45:36.645Z,101171.41
2022-12-03T11:48:45.296Z,101169.37
2022-12-03T11:51:48.340Z,101156.38
2022-12-03T11:54:56.273Z,101163.47
2022-12-03T11:58:04.368Z,101171.53
2022-12-03T12:01:08.290Z,101176.09
2022-12-03T12:04:43.064Z,101075.44
2022-12-03T12:07:47.934Z,101166.09
2022-12-03T12:10:50.555Z,101135.50
2022-12-03T12:13:55.621Z,101135.16
2022-12-03T12:17:03.203Z,101159.63
2022-12-03T12:20:27.107Z,101145.50
2022-12-03T12:23:29.694Z,101140.72
2022-12-03T12:26:31.944Z,101133.25
2022-12-03T12:29:35.859Z,101130.28
2022-12-03T12:33:07.072Z,101114.28
2022-12-03T12:36:10.106Z,101138.97
2022-12-03T12:39:14.733Z,101126.28
2022-12-03T12:42:52.336Z,101116.19
2022-12-03T12:45:56.697Z,101137.25
2022-12-03T12:48:59.993Z,101143.06
2022-12-03T12:52:02.492Z,101117.53
2022-12-03T12:55:10.441Z,101136.06
2022-12-03T12:58:19.490Z,101124.75
2022-12-03T13:01:32.403Z,101096.22
2022-12-03T13:04:39.955Z,101132.06
2022-12-03T13:07:43.932Z,101125.97
2022-12-03T13:10:47.583Z,101126.31
2022-12-03T13:13:50.739Z,101081.81
2022-12-03T13:16:56.049Z,101120.97
2022-12-03T13:20:07.230Z,101127.78
2022-12-03T13:23:29.854Z,101127.47
2022-12-03T13:26:39.450Z,101106.66
2022-12-03T13:29:42.195Z,101133.91
2022-12-03T13:32:44.732Z,101130.03
2022-12-03T13:35:47.098Z,101100.56
2022-12-03T13:38:49.810Z,101131.84
2022-12-03T13:42:11.117Z,101136.72
2022-12-03T13:45:13.595Z,101126.94
2022-12-03T13:48:27.518Z,101108.00
2022-12-03T13:51:32.499Z,101136.66
2022-12-03T13:54:38.986Z,101134.53
2022-12-03T13:57:41.545Z,101132.13
2022-12-03T14:00:43.984Z,101107.44
2022-12-03T14:03:46.571Z,101108.84
2022-12-03T14:06:48.847Z,101134.53
2022-12-03T14:09:51.854Z,101111.44
2022-12-03T14:12:54.985Z,101121.63
2022-12-03T14:15:57.632Z,101148.87
2022-12-03T14:19:00.145Z,101137.91
2022-12-03T14:22:02.788Z,101139.59
2022-12-03T14:25:06.888Z,101125.56
2022-12-03T14:28:09.953Z,101138.00
2022-12-03T14:31:12.228Z,101144.16
2022-12-03T14:34:14.793Z,101149.34
2022-12-03T14:37:17.472Z,101122.19
2022-12-03T14:40:21.991Z,101145.03
2022-12-03T14:43:24.509Z,101127.75
2022-12-03T14:46:27.126Z,101116.84
2022-12-03T14:49:29.699Z,101139.38
2022-12-03T14:52:32.438Z,101147.75
2022-12-03T14:55:34.886Z,101128.16
2022-12-03T14:58:37.439Z,101132.06
2022-12-03T15:01:39.770Z,101129.91
2022-12-03T15:04:42.439Z,101153.31
2022-12-03T15:07:45.010Z,101156.94
2022-12-03T15:10:47.547Z,101157.66
2022-12-03T15:13:49.859Z,101153.78
2022-12-03T15:16:52.462Z,101147.06
2022-12-03T15:19:55.073Z,101140.50
2022-12-03T15:22:58.151Z,101144.66
2022-12-03T15:26:00.494Z,101150.62
2022-12-03T15:29:03.154Z,101159.13
2022-12-03T15:32:05.764Z,101142.34
2022-12-03T15:35:08.715Z,101126.56
2022-12-03T15:38:11.955Z,101137.53
2022-12-03T15:41:29.820Z,101166.72
2022-12-03T15:44:32.069Z,101126.44
2022-12-03T15:47:34.630Z,101138.69
2022-12-03T15:50:40.265Z,101136.22
2022-12-03T15:53:43.135Z,101160.50
2022-12-03T15:56:45.418Z,101155.59
2022-12-03T15:59:48.055Z,101136.59
2022-12-03T16:02:53.089Z,101141.53
2022-12-03T16:05:55.993Z,101132.81
2022-12-03T16:08:58.251Z,101156.78
2022-12-03T16:12:00.787Z,101148.25
2022-12-03T16:15:03.248Z,101133.47
2022-12-03T16:18:05.882Z,101159.34
2022-12-03T16:21:08.143Z,101167.84
2022-12-03T16:24:10.704Z,101174.12
2022-12-03T16:27:12.993Z,101174.41
2022-12-03T16:30:15.763Z,101173.34
2022-12-03T16:33:21.255Z,101170.59
2022-12-03T16:36:28.258Z,101160.81
2022-12-03T16:39:30.690Z,101165.75
2022-12-03T16:42:33.262Z,101172.91
2022-12-03T16:45:54.249Z,101181.63
2022-12-03T16:48:58.228Z,101131.50
2022-12-03T16:52:00.487Z,101150.03
2022-12-03T16:55:03.298Z,101170.16
2022-12-03T16:58:05.896Z,101156.84
2022-12-03T17:01:08.519Z,101144.63
2022-12-03T17:04:10.885Z,101177.31
2022-12-03T17:07:13.469Z,101140.84
2022-12-03T17:10:15.761Z,101171.91
2022-12-03T17:13:18.982Z,101141.13
2022-12-03T17:16:23.857Z,101165.13
2022-12-03T17:19:26.583Z,101170.25
2022-12-03T17:22:28.788Z,101171.97
2022-12-03T17:25:31.337Z,101152.34
2022-12-03T17:28:33.626Z,101146.38
2022-12-03T17:31:41.699Z,101151.25
2022-12-03T17:34:44.657Z,101157.31
2022-12-03T17:37:47.155Z,101180.16
2022-12-03T17:40:49.435Z,101181.28
2022-12-03T17:43:53.866Z,101178.56
2022-12-03T17:46:56.208Z,101178.56
2022-12-03T17:49:58.878Z,101174.44
2022-12-03T17:53:01.392Z,101146.06
2022-12-03T17:56:04.131Z,101180.13
2022-12-03T17:59:06.421Z,101150.47
2022-12-03T18:02:09.035Z,101165.97
2022-12-03T18:05:11.727Z,101174.16
2022-12-03T18:08:13.963Z,101147.44
2022-12-03T18:11:16.553Z,101138.47
2022-12-03T18:14:18.795Z,101150.69
2022-12-03T18:17:21.322Z,101170.88
2022-12-03T18:20:23.671Z,101175.84
2022-12-03T18:23:26.783Z,101166.03
2022-12-03T18:26:29.259Z,101174.25
2022-12-03T18:29:32.010Z,101144.81
2022-12-03T18:32:34.285Z,101148.13
2022-12-03T18:35:37.022Z,101142.69
2022-12-03T18:38:39.328Z,101143.22
2022-12-03T18:41:41.882Z,101145.44
2022-12-03T18:44:49.483Z,101175.16
2022-12-03T18:47:52.472Z,101168.91
2022-12-03T18:50:56.492Z,101151.47
2022-12-03T18:53:59.112Z,101153.09
2022-12-03T18:57:01.483Z,101180.91
2022-12-03T19:00:13.044Z,101180.13
2022-12-03T19:03:15.954Z,101178.72
2022-12-03T19:06:21.450Z,101146.56
2022-12-03T19:09:23.895Z,101155.31
2022-12-03T19:12:26.415Z,101158.31
2022-12-03T19:15:28.714Z,101147.09
2022-12-03T19:18:31.333Z,101141.66
2022-12-03T19:21:34.119Z,101154.75
2022-12-03T19:24:36.713Z,101161.28
2022-12-03T19:27:39.004Z,101181.50
2022-12-03T19:30:41.565Z,101169.78
2022-12-03T19:33:44.289Z,101165.13
2022-12-03T19:36:47.594Z,101187.50
2022-12-03T19:39:53.515Z,101181.78
2022-12-03T19:42:56.285Z,101153.69
2022-12-03T19:46:06.396Z,101188.34
2022-12-03T19:49:09.969Z,101194.09
2022-12-03T19:52:12.221Z,101190.81
2022-12-03T19:55:19.454Z,101203.88
2022-12-03T19:58:22.332Z,101186.44
2022-12-03T20:01:27.347Z,101176.88
2022-12-03T20:04:29.927Z,101172.00
2022-12-03T20:07:32.265Z,101179.91
2022-12-03T20:10:36.287Z,101196.81
2022-12-03T20:13:38.995Z,101194.06
2022-12-03T20:16:43.563Z,101192.44
2022-12-03T20:19:45.967Z,101199.53
2022-12-03T20:22:48.867Z,101181.53
2022-12-03T20:25:51.131Z,101194.06
2022-12-03T20:28:55.188Z,101201.16
2022-12-03T20:31:57.693Z,101172.56
2022-12-03T20:35:00.357Z,101194.06
2022-12-03T20:38:02.629Z,101184.50
2022-12-03T20:41:07.851Z,101186.97
2022-12-03T20:44:10.172Z,101159.13
2022-12-03T20:47:12.779Z,101190.53
2022-12-03T20:50:15.147Z,101176.03
2022-12-03T20:53:24.788Z,101187.50
2022-12-03T20:56:33.296Z,101184.25
2022-12-03T20:59:35.871Z,101190.78
2022-12-03T21:02:38.407Z,101180.13
2022-12-03T21:05:42.619Z,101197.91
2022-12-03T21:08:45.804Z,101172.25
2022-12-03T21:11:48.402Z,101202.28
2022-12-03T21:14:50.925Z,101168.94
2022-12-03T21:17:53.742Z,101184.78
2022-12-03T21:20:56.259Z,101180.94
2022-12-03T21:23:58.778Z,101186.13
2022-12-03T21:27:01.096Z,101179.84
2022-12-03T21:30:04.264Z,101176.59
2022-12-03T21:33:06.924Z,101187.50
2022-12-03T21:36:10.530Z,101194.62
2022-12-03T21:39:13.113Z,101173.38
2022-12-03T21:42:34.007Z,101190.00
2022-12-03T21:45:40.602Z,101183.41
2022-12-03T21:48:44.616Z,101146.06
2022-12-03T21:51:47.050Z,101160.75
2022-12-03T21:54:52.463Z,101164.03
2022-12-03T21:57:54.684Z,101134.03
2022-12-03T22:01:25.599Z,101143.88
2022-12-03T22:04:30.519Z,101176.31
2022-12-03T22:07:34.435Z,101153.09
2022-12-03T22:10:37.030Z,101150.94
2022-12-03T22:13:40.377Z,101168.38
2022-12-03T22:16:42.868Z,101174.91
2022-12-03T22:19:45.160Z,101177.38
2022-12-03T22:22:47.651Z,101146.00
2022-12-03T22:25:58.760Z,101168.38
2022-12-03T22:29:01.307Z,101178.19
2022-12-03T22:32:04.089Z,101138.09
2022-12-03T22:35:06.949Z,101160.44
2022-12-03T22:38:09.182Z,101148.47
2022-12-03T22:41:13.294Z,101141.06
2022-12-03T22:44:16.414Z,101134.56
2022-12-03T22:47:19.025Z,101122.81
2022-12-03T22:50:21.345Z,101137.81
2022-12-03T22:53:23.942Z,101153.06
2022-12-03T22:56:27.721Z,101150.06
2022-12-03T22:59:30.146Z,101155.25
2022-12-03T23:02:33.337Z,101161.78
2022-12-03T23:05:38.723Z,101163.16
2022-12-03T23:08:41.000Z,101126.62
2022-12-03T23:11:45.421Z,101139.13
2022-12-03T23:14:47.660Z,101151.38
2022-12-03T23:17:50.246Z,101129.00
2022-12-03T23:20:54.522Z,101122.50
2022-12-03T23:23:58.710Z,101146.72
2022-12-03T23:27:00.975Z,101148.87
2022-12-03T23:30:04.558Z,101140.12
2022-12-03T23:33:07.103Z,101118.63
2022-12-03T23:36:10.493Z,101134.44
2022-12-03T23:39:12.726Z,101127.88
2022-12-03T23:42:15.470Z,101111.56
2022-12-03T23:45:17.773Z,101131.41
2022-12-03T23:48:20.280Z,101100.63
2022-12-03T23:51:24.601Z,101106.66
2022-12-03T23:54:27.253Z,101102.00
2022-12-03T23:57:29.533Z,101127.63
